Time;durP1;ratioP1;P1;durP2;ratioP2;P2;SDS_P1;SDS_P2;PMS_P1;PMS_P2;Temp;Humidity;BMP_temperature;BMP_pressure;BME280_temperature;BME280_humidity;BME280_pressure;Samples;Min_cycle;Max_cycle;Signal;HPM_P1;HPM_P2
2023/03/20 00:01:23;;;;;;;14.00;7.60;;;7.90;99.90;;;;;;5018634;28;20048;-66
2023/03/20 00:03:50;;;;;;;14.93;7.75;;;7.90;99.90;;;;;;5040814;28;20423;-68
2023/03/20 00:06:21;;;;;;;22.35;8.10;;;7.90;99.90;;;;;;5037898;28;20036;-68
2023/03/20 00:08:50;;;;;;;14.88;7.70;;;7.90;99.90;;;;;;5080468;28;20047;-68
2023/03/20 00:11:32;;;;;;;13.95;6.63;;;7.90;99.90;;;;;;5031418;28;20110;-66
2023/03/20 00:14:06;;;;;;;14.10;7.32;;;7.90;99.90;;;;;;5075558;28;20033;-68
2023/03/20 00:16:35;;;;;;;13.07;6.80;;;7.80;99.90;;;;;;5070070;28;20063;-67
2023/03/20 00:19:02;;;;;;;13.57;6.72;;;7.80;99.90;;;;;;5039206;28;20052;-66
2023/03/20 00:21:28;;;;;;;16.02;7.05;;;7.80;99.90;;;;;;5040942;28;20045;-67
2023/03/20 00:23:54;;;;;;;12.68;6.32;;;7.80;99.90;;;;;;5040991;28;20569;-67
2023/03/20 00:26:23;;;;;;;12.30;6.20;;;7.80;99.90;;;;;;5041381;28;20059;-67
2023/03/20 00:28:50;;;;;;;12.25;6.10;;;7.80;99.90;;;;;;5042838;28;20048;-68
2023/03/20 00:31:29;;;;;;;15.43;6.75;;;7.80;99.90;;;;;;5066168;28;20128;-66
2023/03/20 00:34:00;;;;;;;14.25;6.13;;;7.80;99.90;;;;;;5040212;28;20037;-66
2023/03/20 00:36:27;;;;;;;10.23;6.00;;;7.80;99.90;;;;;;5026223;28;20119;-68
2023/03/20 00:38:53;;;;;;;15.60;6.72;;;7.80;99.90;;;;;;5041835;28;20384;-67
2023/03/20 00:41:27;;;;;;;12.40;6.53;;;7.80;99.90;;;;;;5040344;28;20041;-66
2023/03/20 00:44:00;;;;;;;12.40;6.00;;;7.80;99.90;;;;;;5066796;28;20160;-69
2023/03/20 00:46:26;;;;;;;12.30;6.28;;;7.80;99.90;;;;;;5039654;28;20216;-66
2023/03/20 00:48:52;;;;;;;10.50;6.10;;;7.80;99.90;;;;;;5034746;28;20044;-68
2023/03/20 00:51:18;;;;;;;14.13;6.47;;;7.80;99.90;;;;;;5036661;28;20044;-66
2023/03/20 00:53:44;;;;;;;13.32;5.95;;;7.80;99.90;;;;;;5045403;28;20115;-67
2023/03/20 00:56:33;;;;;;;11.57;6.43;;;7.80;99.90;;;;;;5043342;28;20400;-67
2023/03/20 00:59:03;;;;;;;17.00;6.03;;;7.80;99.90;;;;;;5040152;28;20037;-67
2023/03/20 01:01:30;;;;;;;14.23;6.10;;;7.80;99.90;;;;;;5045327;28;20083;-68
2023/03/20 01:03:57;;;;;;;13.65;7.03;;;7.80;99.90;;;;;;5043532;28;20033;-65
2023/03/20 01:06:23;;;;;;;13.30;6.18;;;7.70;99.90;;;;;;5042583;28;20029;-68
2023/03/20 01:08:48;;;;;;;18.13;7.22;;;7.80;99.90;;;;;;5034266;28;20040;-67
2023/03/20 01:11:18;;;;;;;14.43;7.20;;;7.70;99.90;;;;;;5034333;28;20040;-67
2023/03/20 01:13:44;;;;;;;16.00;6.88;;;7.70;99.90;;;;;;5031035;28;20037;-67
2023/03/20 01:16:20;;;;;;;16.40;7.10;;;7.70;99.90;;;;;;5042849;28;20040;-67
2023/03/20 01:18:46;;;;;;;16.45;6.70;;;7.70;99.90;;;;;;5070262;28;20048;-67
2023/03/20 01:21:12;;;;;;;13.98;6.65;;;7.70;99.90;;;;;;5063685;28;20408;-66
2023/03/20 01:23:38;;;;;;;11.82;6.80;;;7.70;99.90;;;;;;5072779;28;20056;-67
2023/03/20 01:26:17;;;;;;;12.95;6.93;;;7.70;99.90;;;;;;5068007;28;20057;-65
2023/03/20 01:28:43;;;;;;;14.95;6.47;;;7.70;99.90;;;;;;5033170;28;20060;-66
2023/03/20 01:31:08;;;;;;;16.55;6.60;;;7.70;99.90;;;;;;5076864;28;20074;-66
2023/03/20 01:33:34;;;;;;;14.43;6.55;;;7.70;99.90;;;;;;5050578;28;20373;-68
2023/03/20 01:36:00;;;;;;;13.27;6.43;;;7.70;99.90;;;;;;5044048;28;20048;-68
2023/03/20 01:38:26;;;;;;;15.48;6.50;;;7.70;99.90;;;;;;5043370;28;20439;-66
2023/03/20 01:41:02;;;;;;;14.15;6.65;;;7.70;99.90;;;;;;5045238;28;20044;-67
2023/03/20 01:43:28;;;;;;;15.65;8.07;;;7.70;99.90;;;;;;5043366;28;20041;-68
2023/03/20 01:46:17;;;;;;;16.65;7.45;;;7.70;99.90;;;;;;5045289;28;20471;-67
2023/03/20 01:48:48;;;;;;;15.13;8.02;;;7.70;99.90;;;;;;5041793;28;20048;-67
2023/03/20 01:51:18;;;;;;;22.05;9.82;;;7.70;99.90;;;;;;5042008;28;20045;-66
2023/03/20 01:53:47;;;;;;;18.95;9.50;;;7.70;99.90;;;;;;5044345;28;20036;-67
2023/03/20 01:56:16;;;;;;;19.58;10.10;;;7.70;99.90;;;;;;5045788;28;20648;-68
2023/03/20 01:58:47;;;;;;;19.75;10.15;;;7.60;99.90;;;;;;5043836;28;20365;-67
2023/03/20 02:01:13;;;;;;;19.52;10.50;;;7.70;99.90;;;;;;5042508;28;20040;-67
2023/03/20 02:03:44;;;;;;;15.88;10.05;;;7.70;99.90;;;;;;5040067;28;20482;-65
2023/03/20 02:06:10;;;;;;;22.35;10.95;;;7.70;99.90;;;;;;5031446;28;20087;-67
2023/03/20 02:08:42;;;;;;;18.48;9.73;;;7.70;99.90;;;;;;5076523;28;20037;-66
2023/03/20 02:11:11;;;;;;;18.95;10.00;;;7.70;99.90;;;;;;5060281;28;20098;-68
2023/03/20 02:13:38;;;;;;;18.75;10.27;;;7.70;99.90;;;;;;5048872;28;20132;-67
2023/03/20 02:16:04;;;;;;;19.98;10.20;;;7.70;99.90;;;;;;5048046;28;20378;-68
2023/03/20 02:18:31;;;;;;;17.27;10.15;;;7.70;99.90;;;;;;5049735;28;20033;-66
2023/03/20 02:21:15;;;;;;;18.08;9.98;;;7.70;99.90;;;;;;5049408;28;20037;-67
2023/03/20 02:23:54;;;;;;;20.35;10.48;;;7.70;99.90;;;;;;5082399;28;20553;-66
2023/03/20 02:26:38;;;;;;;16.30;10.68;;;7.70;99.90;;;;;;5049388;28;20056;-68
2023/03/20 02:29:28;;;;;;;23.08;11.57;;;7.70;99.90;;;;;;5050635;28;20072;-67
2023/03/20 02:32:31;;;;;;;21.55;11.18;;;7.70;99.90;;;;;;5047764;28;20074;-67
2023/03/20 02:35:15;;;;;;;20.92;10.52;;;7.70;99.90;;;;;;5048364;28;20041;-67
2023/03/20 02:37:52;;;;;;;18.85;11.18;;;7.70;99.90;;;;;;5046444;28;20040;-68
2023/03/20 02:40:21;;;;;;;20.63;11.27;;;7.70;99.90;;;;;;5048594;28;20037;-67
2023/03/20 02:43:06;;;;;;;18.90;11.05;;;7.70;99.90;;;;;;5052867;28;20033;-67
2023/03/20 02:45:47;;;;;;;17.88;10.77;;;7.70;99.90;;;;;;5035482;28;20033;-68
2023/03/20 02:48:32;;;;;;;17.58;10.02;;;7.70;99.90;;;;;;5052089;28;20119;-69
2023/03/20 02:51:15;;;;;;;18.60;11.15;;;7.70;99.90;;;;;;5049108;28;20539;-68
2023/03/20 02:53:59;;;;;;;19.58;10.68;;;7.70;99.90;;;;;;5041729;28;20463;-68
2023/03/20 02:56:42;;;;;;;17.65;10.27;;;7.70;99.90;;;;;;5028009;28;20109;-67
2023/03/20 02:59:28;;;;;;;16.48;10.30;;;7.80;99.90;;;;;;5075559;28;20033;-67
2023/03/20 03:02:01;;;;;;;17.00;9.50;;;7.80;99.90;;;;;;5050953;28;20041;-67
2023/03/20 03:04:28;;;;;;;;;;;7.80;99.90;;;;;;5050749;28;20431;-66
2023/03/20 03:06:57;;;;;;;16.25;9.25;;;7.80;99.90;;;;;;5045466;28;19952;-67
2023/03/20 03:09:28;;;;;;;17.33;9.25;;;7.80;99.90;;;;;;5031578;28;20045;-66
2023/03/20 03:12:05;;;;;;;15.80;8.93;;;7.70;99.90;;;;;;5047345;28;20114;-68
2023/03/20 03:14:40;;;;;;;16.48;8.98;;;7.70;99.90;;;;;;5050968;28;20087;-67
2023/03/20 03:17:08;;;;;;;16.27;8.85;;;7.70;99.90;;;;;;5048275;28;20041;-67
2023/03/20 03:19:36;;;;;;;15.05;8.50;;;7.80;99.90;;;;;;5047156;28;20108;-66
2023/03/20 03:22:03;;;;;;;12.07;7.60;;;7.80;99.90;;;;;;5044750;28;20082;-68
2023/03/20 03:24:33;;;;;;;12.98;7.05;;;7.80;99.90;;;;;;5049313;28;20114;-69
2023/03/20 03:27:02;;;;;;;14.13;7.00;;;7.70;99.90;;;;;;5052181;28;20109;-68
2023/03/20 03:29:32;;;;;;;13.23;6.68;;;7.70;99.90;;;;;;5044159;28;20127;-68
2023/03/20 03:32:01;;;;;;;12.18;7.22;;;7.70;99.90;;;;;;5048795;28;20049;-66
2023/03/20 03:34:27;;;;;;;13.10;6.60;;;7.70;99.90;;;;;;5049391;28;20068;-67
2023/03/20 03:37:05;;;;;;;14.52;7.10;;;7.70;99.90;;;;;;5049351;28;20091;-66
2023/03/20 03:39:42;;;;;;;12.25;6.80;;;7.80;99.90;;;;;;5026708;28;20053;-66
2023/03/20 03:42:20;;;;;;;11.15;7.47;;;7.70;99.90;;;;;;5049543;28;20419;-65
2023/03/20 03:44:59;;;;;;;12.23;6.25;;;7.70;99.90;;;;;;5065933;28;20492;-66
2023/03/20 03:47:33;;;;;;;11.45;6.05;;;7.70;99.90;;;;;;5018835;28;20059;-67
2023/03/20 03:50:15;;;;;;;11.63;6.90;;;7.70;99.90;;;;;;5076253;28;20049;-66
2023/03/20 03:52:43;;;;;;;12.60;6.57;;;7.70;99.90;;;;;;5048455;28;20045;-66
2023/03/20 03:55:14;;;;;;;10.93;5.75;;;7.70;99.90;;;;;;5075016;28;20029;-67
2023/03/20 03:57:45;;;;;;;10.43;6.28;;;7.70;99.90;;;;;;5043304;28;20053;-66
2023/03/20 04:00:16;;;;;;;13.95;6.15;;;7.70;99.90;;;;;;5046385;28;20149;-65
2023/03/20 04:02:44;;;;;;;13.52;6.35;;;7.70;99.90;;;;;;5047473;28;20041;-67
2023/03/20 04:05:12;;;;;;;12.88;6.13;;;7.70;99.90;;;;;;5041498;28;20088;-66
2023/03/20 04:07:38;;;;;;;15.10;6.43;;;7.70;99.90;;;;;;5041908;28;20057;-65
2023/03/20 04:10:05;;;;;;;11.23;5.90;;;7.70;99.90;;;;;;5041463;28;20050;-66
2023/03/20 04:12:39;;;;;;;10.43;6.00;;;7.60;99.90;;;;;;5041180;28;20087;-67
2023/03/20 04:15:06;;;;;;;12.70;6.68;;;7.60;99.90;;;;;;5055131;28;20451;-68
2023/03/20 04:17:31;;;;;;;13.55;6.25;;;7.60;99.90;;;;;;5073331;28;20036;-68
2023/03/20 04:19:57;;;;;;;13.43;5.70;;;7.50;99.90;;;;;;5072233;28;20045;-67
2023/03/20 04:22:23;;;;;;;11.88;6.50;;;7.50;99.90;;;;;;5041733;28;20057;-67
2023/03/20 04:24:50;;;;;;;10.90;6.50;;;7.50;99.90;;;;;;5044893;28;20431;-67
2023/03/20 04:27:16;;;;;;;11.80;6.57;;;7.50;99.90;;;;;;5069995;28;20045;-68
2023/03/20 04:29:42;;;;;;;12.30;7.20;;;7.50;99.90;;;;;;5039273;28;20057;-68
2023/03/20 04:32:08;;;;;;;15.52;6.85;;;7.60;99.90;;;;;;5044638;28;20041;-69
2023/03/20 04:34:33;;;;;;;12.40;7.03;;;7.50;99.90;;;;;;5046925;28;20506;-69
2023/03/20 04:37:00;;;;;;;12.70;7.85;;;7.50;99.90;;;;;;5047762;28;20063;-67
2023/03/20 04:39:26;;;;;;;11.55;7.20;;;7.50;99.90;;;;;;5048455;28;20049;-68
2023/03/20 04:41:52;;;;;;;15.05;8.23;;;7.60;99.90;;;;;;5049725;28;20575;-68
2023/03/20 04:44:17;;;;;;;15.13;8.35;;;7.50;99.90;;;;;;5046668;28;20128;-67
2023/03/20 04:46:43;;;;;;;15.80;8.80;;;7.50;99.90;;;;;;5042230;28;20037;-67
2023/03/20 04:49:09;;;;;;;14.77;8.85;;;7.50;99.90;;;;;;5066279;28;20033;-65
2023/03/20 04:51:34;;;;;;;13.95;8.43;;;7.40;99.90;;;;;;5042566;28;20048;-68
2023/03/20 04:54:00;;;;;;;15.98;9.00;;;7.50;99.90;;;;;;5039846;28;20078;-66
2023/03/20 04:56:26;;;;;;;15.27;8.65;;;7.40;99.90;;;;;;5036343;28;20091;-66
2023/03/20 04:58:51;;;;;;;15.60;9.23;;;7.40;99.90;;;;;;5050302;28;20059;-67
2023/03/20 05:01:17;;;;;;;17.67;9.55;;;7.40;99.90;;;;;;5035926;28;20057;-68
2023/03/20 05:03:43;;;;;;;13.07;8.57;;;7.40;99.90;;;;;;5047031;28;20101;-66
2023/03/20 05:06:09;;;;;;;17.05;10.15;;;7.40;99.90;;;;;;5052099;28;20046;-67
2023/03/20 05:08:35;;;;;;;15.07;9.20;;;7.40;99.90;;;;;;5050743;28;20041;-67
2023/03/20 05:11:01;;;;;;;18.88;10.23;;;7.40;99.90;;;;;;5039278;28;20052;-68
2023/03/20 05:13:26;;;;;;;16.30;10.57;;;7.40;99.90;;;;;;5018400;28;20416;-66
2023/03/20 05:15:52;;;;;;;13.55;8.95;;;7.40;99.90;;;;;;5041242;28;20143;-65
2023/03/20 05:18:18;;;;;;;14.75;8.68;;;7.40;99.90;;;;;;5067287;28;20041;-68
2023/03/20 05:20:43;;;;;;;16.27;9.80;;;7.40;99.90;;;;;;5048069;28;20037;-67
2023/03/20 05:23:09;;;;;;;14.35;10.70;;;7.40;99.90;;;;;;5048649;28;20072;-65
2023/03/20 05:25:35;;;;;;;16.00;9.48;;;7.40;99.90;;;;;;5044878;28;20447;-68
2023/03/20 05:28:01;;;;;;;16.77;9.80;;;7.30;99.90;;;;;;5044229;28;20036;-68
2023/03/20 05:30:27;;;;;;;15.23;9.32;;;7.30;99.90;;;;;;5028165;28;20040;-68
2023/03/20 05:32:53;;;;;;;15.68;9.50;;;7.30;99.90;;;;;;5041929;28;20575;-68
2023/03/20 05:35:19;;;;;;;13.55;9.30;;;7.30;99.90;;;;;;5045164;28;20033;-69
2023/03/20 05:37:45;;;;;;;13.65;9.70;;;7.30;99.90;;;;;;5042702;28;20055;-68
2023/03/20 05:40:12;;;;;;;13.95;9.93;;;7.40;99.90;;;;;;5044283;28;20632;-67
2023/03/20 05:42:38;;;;;;;12.40;8.77;;;7.30;99.90;;;;;;5041902;28;20045;-67
2023/03/20 05:45:05;;;;;;;12.70;9.00;;;7.40;99.90;;;;;;5043546;28;20041;-67
2023/03/20 05:47:30;;;;;;;18.10;9.35;;;7.30;99.90;;;;;;5023085;28;20041;-68
2023/03/20 05:49:56;;;;;;;14.57;9.50;;;7.30;99.90;;;;;;5042378;28;20508;-68
2023/03/20 05:52:22;;;;;;;13.10;8.35;;;7.30;99.90;;;;;;5050535;28;20037;-68
2023/03/20 05:54:48;;;;;;;16.35;9.10;;;7.40;99.90;;;;;;5054330;28;20158;-67
2023/03/20 05:57:14;;;;;;;15.48;8.70;;;7.30;99.90;;;;;;5046303;28;20041;-68
2023/03/20 05:59:40;;;;;;;14.18;8.48;;;7.40;99.90;;;;;;5060613;28;20044;-68
2023/03/20 06:02:05;;;;;;;15.25;8.70;;;7.40;99.90;;;;;;5041069;28;20079;-68
2023/03/20 06:04:31;;;;;;;13.23;9.00;;;7.40;99.90;;;;;;5026327;28;20077;-67
2023/03/20 06:06:57;;;;;;;15.80;8.85;;;7.40;99.90;;;;;;5043113;28;20041;-68
2023/03/20 06:09:23;;;;;;;16.35;9.10;;;7.40;99.90;;;;;;5046238;28;20067;-69
2023/03/20 06:11:48;;;;;;;14.07;9.10;;;7.40;99.90;;;;;;5043031;28;20116;-66
2023/03/20 06:14:14;;;;;;;17.27;9.18;;;7.40;99.90;;;;;;5053341;28;20036;-66
2023/03/20 06:16:39;;;;;;;14.25;8.80;;;7.40;99.90;;;;;;5031810;28;20132;-68
2023/03/20 06:19:05;;;;;;;13.88;8.80;;;7.50;99.90;;;;;;5049016;28;20480;-66
2023/03/20 06:21:31;;;;;;;14.82;9.00;;;7.50;99.90;;;;;;5050170;28;20038;-68
2023/03/20 06:23:58;;;;;;;15.57;8.88;;;7.50;99.90;;;;;;5051011;28;20060;-68
2023/03/20 06:26:24;;;;;;;14.98;8.90;;;7.50;99.90;;;;;;5047391;28;20456;-68
2023/03/20 06:28:50;;;;;;;16.73;8.85;;;7.50;99.90;;;;;;5073928;28;20048;-68
2023/03/20 06:31:16;;;;;;;13.48;8.48;;;7.60;99.90;;;;;;5051195;28;20056;-70
2023/03/20 06:33:42;;;;;;;16.48;9.43;;;7.60;99.90;;;;;;5048809;28;20033;-67
2023/03/20 06:36:08;;;;;;;16.27;9.60;;;7.60;99.90;;;;;;5048305;28;20041;-68
2023/03/20 06:38:33;;;;;;;18.88;10.30;;;7.60;99.90;;;;;;5045155;28;20041;-68
2023/03/20 06:40:59;;;;;;;15.52;9.75;;;7.60;99.90;;;;;;5032541;28;20040;-68
2023/03/20 06:43:25;;;;;;;16.58;9.25;;;7.60;99.90;;;;;;5052605;28;20044;-69
2023/03/20 06:45:51;;;;;;;16.52;10.35;;;7.60;99.90;;;;;;5051016;28;20554;-69
2023/03/20 06:48:20;;;;;;;18.38;9.45;;;7.60;99.90;;;;;;5050073;28;20557;-67
2023/03/20 06:50:47;;;;;;;16.05;9.43;;;7.60;99.90;;;;;;5053640;28;20123;-69
2023/03/20 06:53:13;;;;;;;18.30;9.93;;;7.60;99.90;;;;;;5050666;28;20041;-68
2023/03/20 06:55:39;;;;;;;16.65;9.98;;;7.70;99.90;;;;;;5048957;28;20056;-68
2023/03/20 06:58:05;;;;;;;18.45;9.70;;;7.70;99.90;;;;;;5033674;28;20029;-68
2023/03/20 07:00:31;;;;;;;18.13;10.02;;;7.70;99.90;;;;;;5048031;28;20037;-66
2023/03/20 07:02:57;;;;;;;16.35;10.18;;;7.70;99.90;;;;;;5049335;28;20067;-68
2023/03/20 07:05:23;;;;;;;21.85;11.13;;;7.80;99.90;;;;;;5049704;28;20045;-67
2023/03/20 07:07:48;;;;;;;17.30;9.82;;;7.80;99.90;;;;;;5050422;28;20495;-67
2023/03/20 07:10:14;;;;;;;18.25;10.18;;;7.80;99.90;;;;;;5033544;28;20060;-69
2023/03/20 07:12:40;;;;;;;19.23;10.48;;;7.80;99.90;;;;;;5049931;28;20104;-68
2023/03/20 07:15:06;;;;;;;19.45;10.10;;;7.80;99.90;;;;;;5050336;28;20045;-68
2023/03/20 07:17:32;;;;;;;18.05;10.15;;;7.90;99.90;;;;;;5050802;28;20037;-69
2023/03/20 07:19:57;;;;;;;16.63;9.57;;;7.90;99.90;;;;;;5081580;28;20118;-68
2023/03/20 07:22:25;;;;;;;22.48;10.48;;;7.90;99.90;;;;;;5068140;28;20447;-69
2023/03/20 07:24:51;;;;;;;17.45;9.77;;;7.90;99.90;;;;;;5050545;28;20053;-68
2023/03/20 07:27:17;;;;;;;14.93;9.60;;;7.90;99.90;;;;;;5050803;28;20099;-69
2023/03/20 07:29:44;;;;;;;16.45;9.50;;;7.90;99.90;;;;;;5050057;28;20053;-68
2023/03/20 07:32:10;;;;;;;17.20;9.45;;;8.00;99.90;;;;;;5050196;28;20040;-67
2023/03/20 07:34:36;;;;;;;17.33;9.80;;;8.00;99.90;;;;;;5033641;28;20044;-68
2023/03/20 07:37:02;;;;;;;19.08;9.40;;;8.00;99.90;;;;;;5050529;28;20037;-66
2023/03/20 07:39:28;;;;;;;16.52;9.65;;;8.00;99.90;;;;;;5050015;28;20044;-68
2023/03/20 07:41:53;;;;;;;17.10;9.73;;;8.00;99.90;;;;;;5051542;28;20033;-68
2023/03/20 07:44:19;;;;;;;19.13;10.60;;;8.10;99.90;;;;;;5049951;28;20392;-69
2023/03/20 07:46:48;;;;;;;18.35;10.18;;;8.10;99.90;;;;;;5033605;28;20522;-69
2023/03/20 07:49:17;;;;;;;17.00;9.88;;;8.20;99.90;;;;;;5033436;28;20106;-69
2023/03/20 07:51:43;;;;;;;15.82;9.95;;;8.20;99.90;;;;;;5049923;28;20063;-68
2023/03/20 07:54:09;;;;;;;18.48;10.68;;;8.20;99.90;;;;;;5033249;28;20036;-69
2023/03/20 07:56:35;;;;;;;17.05;9.73;;;8.20;99.90;;;;;;5050027;28;20545;-68
2023/03/20 07:59:01;;;;;;;19.42;10.35;;;8.30;99.90;;;;;;5049885;28;20037;-67
2023/03/20 08:01:27;;;;;;;18.02;10.02;;;8.30;99.90;;;;;;5050937;28;20037;-69
2023/03/20 08:03:52;;;;;;;16.48;9.77;;;8.30;99.90;;;;;;5049605;28;20060;-68
2023/03/20 08:06:18;;;;;;;15.15;9.45;;;8.40;99.90;;;;;;5050029;28;20112;-67
2023/03/20 08:08:44;;;;;;;14.70;9.20;;;8.40;99.90;;;;;;5049398;28;20106;-69
2023/03/20 08:11:10;;;;;;;17.30;9.55;;;8.50;99.90;;;;;;5049828;28;20047;-69
2023/03/20 08:13:36;;;;;;;17.88;10.40;;;8.50;99.90;;;;;;5049528;28;20436;-67
2023/03/20 08:16:02;;;;;;;17.35;10.48;;;8.50;99.90;;;;;;5049627;28;20049;-68
2023/03/20 08:18:28;;;;;;;16.80;10.48;;;8.60;99.90;;;;;;5049355;28;20047;-68
2023/03/20 08:20:54;;;;;;;16.23;9.90;;;8.60;99.90;;;;;;5049442;28;20041;-68
2023/03/20 08:23:20;;;;;;;16.50;10.32;;;8.60;99.90;;;;;;5049468;28;20081;-68
2023/03/20 08:25:48;;;;;;;16.42;10.10;;;8.60;99.90;;;;;;5048676;28;20045;-69
2023/03/20 08:28:13;;;;;;;15.68;9.90;;;8.70;99.90;;;;;;5049716;28;20488;-68
2023/03/20 08:30:39;;;;;;;18.17;9.98;;;8.80;99.90;;;;;;5049143;28;20110;-68
2023/03/20 08:33:05;;;;;;;16.20;9.90;;;8.90;99.90;;;;;;5049372;28;20071;-69
2023/03/20 08:35:30;;;;;;;18.33;10.40;;;9.00;99.90;;;;;;5049157;28;20052;-67
2023/03/20 08:37:56;;;;;;;15.52;10.02;;;9.10;99.90;;;;;;5049185;28;20048;-68
2023/03/20 08:40:22;;;;;;;17.20;9.82;;;9.20;99.90;;;;;;5049278;28;20029;-69
2023/03/20 08:42:48;;;;;;;16.80;9.07;;;9.20;99.90;;;;;;5048960;28;20045;-67
2023/03/20 08:45:14;;;;;;;16.33;9.20;;;9.20;99.90;;;;;;5049491;28;20047;-68
2023/03/20 08:47:39;;;;;;;13.88;8.85;;;9.20;99.90;;;;;;5049081;28;20049;-67
2023/03/20 08:50:06;;;;;;;15.82;8.77;;;9.20;99.90;;;;;;5049458;28;20033;-68
2023/03/20 08:52:32;;;;;;;16.40;9.38;;;9.30;99.90;;;;;;5048958;28;20041;-67
2023/03/20 08:54:58;;;;;;;14.75;9.40;;;9.40;99.90;;;;;;5049051;28;20131;-68
2023/03/20 08:57:24;;;;;;;15.32;9.00;;;9.40;99.90;;;;;;5049154;28;20128;-68
2023/03/20 08:59:49;;;;;;;13.98;9.18;;;9.50;99.90;;;;;;5048801;28;20045;-67
2023/03/20 09:02:15;;;;;;;15.65;9.18;;;9.60;99.90;;;;;;5049071;28;20033;-68
2023/03/20 09:04:41;;;;;;;16.70;9.57;;;9.60;99.90;;;;;;5049229;28;20045;-68
2023/03/20 09:07:07;;;;;;;15.90;8.82;;;9.80;99.90;;;;;;5048907;28;20041;-67
2023/03/20 09:09:33;;;;;;;15.30;7.68;;;9.80;99.90;;;;;;5048989;28;20048;-68
2023/03/20 09:11:59;;;;;;;13.75;8.43;;;9.90;99.90;;;;;;5050079;28;20448;-69
2023/03/20 09:14:26;;;;;;;15.02;8.60;;;10.10;99.90;;;;;;5048774;28;20033;-69
2023/03/20 09:16:52;;;;;;;15.27;8.85;;;10.20;99.90;;;;;;5048527;28;20041;-68
2023/03/20 09:19:18;;;;;;;15.05;8.48;;;10.40;99.90;;;;;;5048885;28;20037;-69
2023/03/20 09:21:44;;;;;;;15.23;8.65;;;10.40;99.90;;;;;;5048866;28;20116;-69
2023/03/20 09:24:10;;;;;;;14.32;8.82;;;10.50;99.90;;;;;;5048985;28;20052;-69
2023/03/20 09:26:37;;;;;;;14.50;8.73;;;10.50;99.90;;;;;;5032174;28;20057;-69
2023/03/20 09:29:03;;;;;;;18.23;8.23;;;10.50;99.90;;;;;;5048615;28;20098;-67
2023/03/20 09:31:29;;;;;;;15.82;9.02;;;10.50;99.90;;;;;;5048724;28;20135;-68
2023/03/20 09:33:54;;;;;;;13.98;8.07;;;10.60;99.90;;;;;;5048440;28;20087;-68
2023/03/20 09:36:20;;;;;;;13.10;7.38;;;10.80;99.90;;;;;;5050451;28;20464;-67
2023/03/20 09:38:47;;;;;;;14.77;7.72;;;10.90;99.90;;;;;;5052751;28;20045;-69
2023/03/20 09:41:19;;;;;;;12.18;7.82;;;10.80;99.90;;;;;;5052877;28;20396;-68
2023/03/20 09:44:03;;;;;;;13.77;7.50;;;10.60;99.90;;;;;;5052445;28;20053;-67
2023/03/20 09:46:31;;;;;;;12.88;7.10;;;10.50;99.90;;;;;;5052422;28;20047;-67
2023/03/20 09:49:15;;;;;;;14.43;7.40;;;10.30;99.90;;;;;;5052104;28;20483;-69
2023/03/20 09:51:53;;;;;;;14.32;7.88;;;10.30;99.90;;;;;;5052428;28;20045;-68
2023/03/20 09:54:39;;;;;;;16.17;8.43;;;10.30;99.90;;;;;;5052280;28;20040;-67
2023/03/20 09:57:14;;;;;;;15.13;8.23;;;10.30;99.90;;;;;;5051856;28;20052;-68
2023/03/20 09:59:40;;;;;;;15.90;8.77;;;10.30;99.90;;;;;;5035515;28;20067;-68
2023/03/20 10:02:15;;;;;;;16.38;7.68;;;10.30;99.90;;;;;;5051934;28;20408;-68
2023/03/20 10:04:42;;;;;;;13.05;8.43;;;10.20;99.90;;;;;;5052251;28;20423;-68
2023/03/20 10:07:11;;;;;;;16.15;8.30;;;10.20;99.90;;;;;;5051957;28;20041;-67
2023/03/20 10:09:37;;;;;;;15.75;8.38;;;10.10;99.90;;;;;;5051896;28;20048;-68
2023/03/20 10:12:52;;;;;;;17.45;8.45;;;10.00;99.90;;;;;;5051688;28;20171;-67
2023/03/20 10:15:20;;;;;;;16.73;8.40;;;10.00;99.90;;;;;;5033951;28;20112;-68
2023/03/20 10:18:09;;;;;;;15.40;7.78;;;9.90;99.90;;;;;;5034315;28;20049;-69
2023/03/20 10:20:42;;;;;;;13.02;8.00;;;9.80;99.90;;;;;;5034098;28;20053;-68
2023/03/20 10:23:38;;;;;;;15.93;7.38;;;9.80;99.90;;;;;;5033720;28;20060;-68
2023/03/20 10:26:10;;;;;;;13.75;7.18;;;9.70;99.90;;;;;;5067004;28;20099;-68
2023/03/20 10:28:42;;;;;;;12.80;6.80;;;9.70;99.90;;;;;;5017698;28;20547;-68
2023/03/20 10:31:31;;;;;;;17.58;7.63;;;9.60;99.90;;;;;;5033689;28;20041;-69
2023/03/20 10:34:05;;;;;;;17.48;7.78;;;9.60;99.90;;;;;;5033488;28;20174;-68
2023/03/20 10:36:52;;;;;;;15.10;6.80;;;9.60;99.90;;;;;;5034031;28;20542;-68
2023/03/20 10:39:29;;;;;;;11.70;6.78;;;9.60;99.90;;;;;;5033868;28;20045;-68
2023/03/20 10:41:59;;;;;;;13.15;6.68;;;9.70;99.90;;;;;;5033585;28;20064;-69
2023/03/20 10:44:37;;;;;;;12.75;7.00;;;9.70;99.90;;;;;;5066851;28;20165;-68
2023/03/20 10:47:08;;;;;;;17.60;7.38;;;9.70;99.90;;;;;;5033580;28;20057;-68
2023/03/20 10:50:01;;;;;;;14.95;7.95;;;9.70;99.90;;;;;;5051120;28;20090;-67
2023/03/20 10:52:32;;;;;;;14.15;7.05;;;9.70;99.90;;;;;;5050982;28;20127;-69
2023/03/20 10:55:03;;;;;;;12.70;6.68;;;9.60;99.90;;;;;;5051023;28;20047;-69
2023/03/20 10:57:33;;;;;;;13.40;6.72;;;9.60;99.90;;;;;;5051020;28;20033;-67
2023/03/20 10:59:59;;;;;;;13.38;6.78;;;9.70;99.90;;;;;;5051213;28;20377;-67
2023/03/20 11:02:29;;;;;;;11.93;6.45;;;9.70;99.90;;;;;;5034324;28;20055;-68
2023/03/20 11:04:54;;;;;;;12.15;7.32;;;9.70;99.90;;;;;;5051258;28;20049;-67
2023/03/20 11:07:25;;;;;;;11.55;6.78;;;9.70;99.90;;;;;;5050709;28;20770;-68
2023/03/20 11:10:09;;;;;;;11.93;6.68;;;9.80;99.90;;;;;;5051304;28;20048;-68
2023/03/20 11:12:39;;;;;;;14.38;6.82;;;9.70;99.90;;;;;;5050778;28;20047;-68
2023/03/20 11:15:30;;;;;;;16.23;6.15;;;9.70;99.90;;;;;;5034087;28;20466;-68
2023/03/20 11:18:05;;;;;;;13.73;6.28;;;9.70;99.90;;;;;;5050745;28;20041;-67
2023/03/20 11:20:34;;;;;;;15.15;6.10;;;9.60;99.90;;;;;;5050672;28;20079;-67
2023/03/20 11:23:07;;;;;;;11.57;5.93;;;9.70;99.90;;;;;;5050517;28;20137;-68
2023/03/20 11:25:37;;;;;;;13.93;5.15;;;9.70;99.90;;;;;;5050484;28;20064;-68
2023/03/20 11:28:30;;;;;;;9.60;3.78;;;9.80;99.90;;;;;;5050459;28;20102;-68
2023/03/20 11:31:04;;;;;;;9.38;3.90;;;9.80;99.90;;;;;;5050457;28;20049;-68
2023/03/20 11:33:31;;;;;;;9.35;4.53;;;9.70;99.90;;;;;;5050358;28;20044;-67
2023/03/20 11:35:58;;;;;;;12.40;4.80;;;9.70;99.90;;;;;;5050550;28;20041;-68
2023/03/20 11:38:24;;;;;;;8.10;5.00;;;9.70;99.90;;;;;;5049895;28;20036;-68
2023/03/20 11:40:53;;;;;;;11.48;4.60;;;9.70;99.90;;;;;;5050336;28;20114;-68
2023/03/20 11:43:22;;;;;;;8.85;3.95;;;9.80;99.90;;;;;;5050096;28;20037;-67
2023/03/20 11:45:53;;;;;;;10.57;4.30;;;9.70;99.90;;;;;;5050120;28;20122;-67
2023/03/20 11:48:24;;;;;;;9.45;4.55;;;9.70;99.90;;;;;;5050241;28;20044;-69
2023/03/20 11:51:09;;;;;;;10.32;4.40;;;9.70;99.90;;;;;;5050131;28;20041;-68
2023/03/20 11:54:00;;;;;;;10.23;4.63;;;9.70;99.90;;;;;;5049724;28;20080;-68
2023/03/20 11:56:28;;;;;;;7.25;3.95;;;9.70;99.90;;;;;;5049358;28;20129;-68
2023/03/20 11:59:10;;;;;;;10.82;4.80;;;9.70;99.90;;;;;;5033148;28;20049;-68
2023/03/20 12:01:56;;;;;;;11.65;4.28;;;9.70;99.90;;;;;;5049521;28;20062;-67
2023/03/20 12:04:44;;;;;;;8.65;3.88;;;9.70;99.90;;;;;;5049763;28;20041;-67
2023/03/20 12:07:19;;;;;;;8.30;3.83;;;9.60;99.90;;;;;;5049735;28;20052;-67
2023/03/20 12:10:04;;;;;;;9.48;4.22;;;9.70;99.90;;;;;;5049575;28;20049;-67
2023/03/20 12:12:35;;;;;;;10.57;3.88;;;9.70;99.90;;;;;;5049434;28;20151;-66
2023/03/20 12:15:39;;;;;;;8.80;4.17;;;9.70;99.90;;;;;;5049611;28;20085;-67
2023/03/20 12:18:14;;;;;;;8.70;3.90;;;9.60;99.90;;;;;;5012025;28;20300;-68
2023/03/20 12:21:06;;;;;;;8.93;4.47;;;9.70;99.90;;;;;;4995718;28;20052;-67
2023/03/20 12:23:56;;;;;;;9.77;4.32;;;9.70;99.90;;;;;;5044770;28;20053;-68
2023/03/20 12:26:56;;;;;;;11.75;4.95;;;9.60;99.90;;;;;;5045055;28;20088;-66
2023/03/20 12:29:46;;;;;;;10.75;4.70;;;9.50;99.90;;;;;;4953737;28;20525;-67
2023/03/20 12:32:31;;;;;;;11.57;4.53;;;9.40;99.90;;;;;;4969881;28;20505;-67
2023/03/20 12:35:02;;;;;;;9.15;4.50;;;9.20;99.90;;;;;;4985762;28;20055;-66
2023/03/20 12:37:27;;;;;;;9.15;4.90;;;9.20;99.90;;;;;;4953724;28;20433;-67
2023/03/20 12:39:58;;;;;;;7.97;4.53;;;9.10;99.90;;;;;;4969834;28;20051;-67
2023/03/20 12:42:41;;;;;;;10.32;4.30;;;9.10;99.90;;;;;;4969660;28;20122;-68
2023/03/20 12:45:18;;;;;;;10.40;4.35;;;9.00;99.90;;;;;;4953378;28;20062;-67
2023/03/20 12:48:17;;;;;;;8.73;4.80;;;9.00;99.90;;;;;;4969298;28;20353;-67
2023/03/20 12:51:06;;;;;;;10.00;4.53;;;8.90;99.90;;;;;;4968925;28;20050;-67
2023/03/20 12:53:36;;;;;;;9.52;4.57;;;8.90;99.90;;;;;;5004844;28;20064;-67
2023/03/20 12:56:31;;;;;;;8.98;4.72;;;8.70;99.90;;;;;;4972780;28;20042;-68
2023/03/20 12:59:00;;;;;;;11.88;4.63;;;8.70;99.90;;;;;;4957716;28;20136;-67
2023/03/20 13:01:32;;;;;;;10.93;4.63;;;8.70;99.90;;;;;;4989260;28;20053;-67
2023/03/20 13:04:17;;;;;;;7.68;3.70;;;8.70;99.90;;;;;;4972404;28;20065;-67